sensor_id;sensor_type;location;lat;lon;timestamp;pressure;altitude;pressure_sealevel;temperature;humidity
71772;BME280;59606;52.138;5.424;2022-09-01T00:01:48;102309.94;;;16.05;65.65
71772;BME280;59606;52.138;5.424;2022-09-01T00:04:18;102308.44;;;16.00;65.43
71772;BME280;59606;52.138;5.424;2022-09-01T00:06:46;102311.38;;;15.94;65.74
71772;BME280;59606;52.138;5.424;2022-09-01T00:09:15;102305.44;;;15.91;66.24
71772;BME280;59606;52.138;5.424;2022-09-01T00:11:46;102294.16;;;15.89;66.37
71772;BME280;59606;52.138;5.424;2022-09-01T00:14:17;102293.41;;;15.87;66.41
71772;BME280;59606;52.138;5.424;2022-09-01T00:17:02;102300.69;;;15.82;66.64
71772;BME280;59606;52.138;5.424;2022-09-01T00:19:29;102304.41;;;15.77;67.10
71772;BME280;59606;52.138;5.424;2022-09-01T00:22:00;102305.41;;;15.75;66.95
71772;BME280;59606;52.138;5.424;2022-09-01T00:24:27;102300.31;;;15.72;67.09
71772;BME280;59606;52.138;5.424;2022-09-01T00:26:55;102297.00;;;15.68;67.12
71772;BME280;59606;52.138;5.424;2022-09-01T00:29:24;102299.84;;;15.64;67.48
71772;BME280;59606;52.138;5.424;2022-09-01T00:31:51;102293.13;;;15.58;67.58
71772;BME280;59606;52.138;5.424;2022-09-01T00:34:18;102298.47;;;15.56;67.99
71772;BME280;59606;52.138;5.424;2022-09-01T00:36:44;102303.78;;;15.55;68.05
71772;BME280;59606;52.138;5.424;2022-09-01T00:39:12;102299.53;;;15.52;68.12
71772;BME280;59606;52.138;5.424;2022-09-01T00:41:40;102290.06;;;15.50;67.96
71772;BME280;59606;52.138;5.424;2022-09-01T00:44:13;102292.00;;;15.46;68.30
71772;BME280;59606;52.138;5.424;2022-09-01T00:46:46;102287.75;;;15.44;68.26
71772;BME280;59606;52.138;5.424;2022-09-01T00:49:31;102289.69;;;15.40;68.44
71772;BME280;59606;52.138;5.424;2022-09-01T00:52:06;102277.56;;;15.38;68.83
71772;BME280;59606;52.138;5.424;2022-09-01T00:54:37;102278.66;;;15.33;68.80
71772;BME280;59606;52.138;5.424;2022-09-01T00:57:07;102281.50;;;15.29;69.15
71772;BME280;59606;52.138;5.424;2022-09-01T00:59:35;102285.16;;;15.26;68.82
71772;BME280;59606;52.138;5.424;2022-09-01T01:02:04;102283.59;;;15.22;69.23
71772;BME280;59606;52.138;5.424;2022-09-01T01:04:31;102286.31;;;15.21;69.26
71772;BME280;59606;52.138;5.424;2022-09-01T01:06:58;102281.22;;;15.18;69.49
71772;BME280;59606;52.138;5.424;2022-09-01T01:09:35;102278.69;;;15.16;69.81
71772;BME280;59606;52.138;5.424;2022-09-01T01:12:04;102281.47;;;15.13;69.68
71772;BME280;59606;52.138;5.424;2022-09-01T01:14:34;102282.63;;;15.07;69.73
71772;BME280;59606;52.138;5.424;2022-09-01T01:17:02;102271.34;;;15.05;70.26
71772;BME280;59606;52.138;5.424;2022-09-01T01:19:44;102278.50;;;15.02;70.03
71772;BME280;59606;52.138;5.424;2022-09-01T01:22:38;102280.38;;;15.00;69.91
71772;BME280;59606;52.138;5.424;2022-09-01T01:25:26;102278.91;;;14.94;70.18
71772;BME280;59606;52.138;5.424;2022-09-01T01:28:03;102271.13;;;14.93;70.19
71772;BME280;59606;52.138;5.424;2022-09-01T01:30:30;102280.06;;;14.89;70.68
71772;BME280;59606;52.138;5.424;2022-09-01T01:33:03;102278.53;;;14.84;70.97
71772;BME280;59606;52.138;5.424;2022-09-01T01:35:30;102275.19;;;14.81;70.55
71772;BME280;59606;52.138;5.424;2022-09-01T01:37:57;102268.25;;;14.80;70.62
71772;BME280;59606;52.138;5.424;2022-09-01T01:40:23;102267.56;;;14.76;70.81
71772;BME280;59606;52.138;5.424;2022-09-01T01:42:52;102267.78;;;14.72;70.35
71772;BME280;59606;52.138;5.424;2022-09-01T01:45:21;102272.41;;;14.67;70.43
71772;BME280;59606;52.138;5.424;2022-09-01T01:47:49;102268.94;;;14.66;70.95
71772;BME280;59606;52.138;5.424;2022-09-01T01:50:30;102269.94;;;14.64;70.79
71772;BME280;59606;52.138;5.424;2022-09-01T01:53:05;102267.59;;;14.57;71.07
71772;BME280;59606;52.138;5.424;2022-09-01T01:55:38;102278.94;;;14.58;71.01
71772;BME280;59606;52.138;5.424;2022-09-01T01:58:04;102280.13;;;14.52;71.01
71772;BME280;59606;52.138;5.424;2022-09-01T02:00:31;102277.66;;;14.48;70.98
71772;BME280;59606;52.138;5.424;2022-09-01T02:03:00;102277.81;;;14.45;71.28
71772;BME280;59606;52.138;5.424;2022-09-01T02:05:29;102276.25;;;14.41;71.74
71772;BME280;59606;52.138;5.424;2022-09-01T02:08:06;102273.88;;;14.36;71.44
71772;BME280;59606;52.138;5.424;2022-09-01T02:10:37;102281.94;;;14.31;71.69
71772;BME280;59606;52.138;5.424;2022-09-01T02:13:04;102277.75;;;14.27;71.87
71772;BME280;59606;52.138;5.424;2022-09-01T02:15:37;102275.28;;;14.24;72.23
71772;BME280;59606;52.138;5.424;2022-09-01T02:18:17;102275.22;;;14.26;71.87
71772;BME280;59606;52.138;5.424;2022-09-01T02:20:48;102274.44;;;14.24;72.45
71772;BME280;59606;52.138;5.424;2022-09-01T02:23:16;102278.91;;;14.22;72.39
71772;BME280;59606;52.138;5.424;2022-09-01T02:25:50;102281.50;;;14.22;72.26
71772;BME280;59606;52.138;5.424;2022-09-01T02:28:39;102283.28;;;14.21;72.17
71772;BME280;59606;52.138;5.424;2022-09-01T02:31:09;102279.69;;;14.24;72.57
71772;BME280;59606;52.138;5.424;2022-09-01T02:33:38;102285.78;;;14.24;72.96
71772;BME280;59606;52.138;5.424;2022-09-01T02:36:08;102271.81;;;14.24;72.81
71772;BME280;59606;52.138;5.424;2022-09-01T02:38:35;102281.47;;;14.23;72.72
71772;BME280;59606;52.138;5.424;2022-09-01T02:41:04;102277.16;;;14.22;72.93
71772;BME280;59606;52.138;5.424;2022-09-01T02:43:30;102287.69;;;14.21;72.39
71772;BME280;59606;52.138;5.424;2022-09-01T02:45:59;102280.81;;;14.18;73.11
71772;BME280;59606;52.138;5.424;2022-09-01T02:48:32;102279.34;;;14.12;73.08
71772;BME280;59606;52.138;5.424;2022-09-01T02:51:13;102285.44;;;14.13;73.13
71772;BME280;59606;52.138;5.424;2022-09-01T02:53:41;102273.41;;;14.09;73.40
71772;BME280;59606;52.138;5.424;2022-09-01T02:56:10;102286.41;;;14.10;72.86
71772;BME280;59606;52.138;5.424;2022-09-01T02:58:43;102276.72;;;14.12;73.40
71772;BME280;59606;52.138;5.424;2022-09-01T03:01:26;102274.16;;;14.11;72.76
71772;BME280;59606;52.138;5.424;2022-09-01T03:04:01;102269.00;;;14.09;73.50
71772;BME280;59606;52.138;5.424;2022-09-01T03:06:29;102269.06;;;14.08;72.79
71772;BME280;59606;52.138;5.424;2022-09-01T03:09:00;102267.38;;;14.07;73.30
71772;BME280;59606;52.138;5.424;2022-09-01T03:11:29;102271.75;;;14.06;73.07
71772;BME280;59606;52.138;5.424;2022-09-01T03:13:56;102275.31;;;14.05;73.41
71772;BME280;59606;52.138;5.424;2022-09-01T03:16:22;102264.03;;;14.03;73.18
71772;BME280;59606;52.138;5.424;2022-09-01T03:18:50;102278.13;;;14.01;72.93
71772;BME280;59606;52.138;5.424;2022-09-01T03:21:18;102268.59;;;14.00;73.01
71772;BME280;59606;52.138;5.424;2022-09-01T03:23:45;102268.81;;;13.95;72.67
71772;BME280;59606;52.138;5.424;2022-09-01T03:26:14;102274.19;;;13.92;73.44
71772;BME280;59606;52.138;5.424;2022-09-01T03:28:44;102277.78;;;13.89;73.04
71772;BME280;59606;52.138;5.424;2022-09-01T03:31:11;102271.69;;;13.89;72.93
71772;BME280;59606;52.138;5.424;2022-09-01T03:33:38;102270.19;;;13.83;73.24
71772;BME280;59606;52.138;5.424;2022-09-01T03:36:05;102268.69;;;13.78;73.49
71772;BME280;59606;52.138;5.424;2022-09-01T03:38:40;102263.59;;;13.75;73.64
71772;BME280;59606;52.138;5.424;2022-09-01T03:41:09;102266.44;;;13.70;73.01
71772;BME280;59606;52.138;5.424;2022-09-01T03:43:39;102268.25;;;13.68;73.48
71772;BME280;59606;52.138;5.424;2022-09-01T03:46:14;102270.16;;;13.64;73.44
71772;BME280;59606;52.138;5.424;2022-09-01T03:48:49;102267.69;;;13.61;73.78
71772;BME280;59606;52.138;5.424;2022-09-01T03:51:18;102267.84;;;13.58;73.57
71772;BME280;59606;52.138;5.424;2022-09-01T03:53:45;102268.97;;;13.53;73.77
71772;BME280;59606;52.138;5.424;2022-09-01T03:56:12;102262.09;;;13.50;74.13
71772;BME280;59606;52.138;5.424;2022-09-01T03:58:41;102264.78;;;13.49;74.14
71772;BME280;59606;52.138;5.424;2022-09-01T04:01:12;102257.97;;;13.44;73.91
71772;BME280;59606;52.138;5.424;2022-09-01T04:03:39;102255.34;;;13.44;73.91
71772;BME280;59606;52.138;5.424;2022-09-01T04:06:08;102267.66;;;13.42;74.23
71772;BME280;59606;52.138;5.424;2022-09-01T04:08:35;102261.59;;;13.42;74.18
71772;BME280;59606;52.138;5.424;2022-09-01T04:11:10;102266.81;;;13.42;74.12
71772;BME280;59606;52.138;5.424;2022-09-01T04:13:39;102264.25;;;13.40;74.36
71772;BME280;59606;52.138;5.424;2022-09-01T04:16:30;102267.84;;;13.38;74.55
71772;BME280;59606;52.138;5.424;2022-09-01T04:19:21;102267.09;;;13.36;74.44
71772;BME280;59606;52.138;5.424;2022-09-01T04:21:59;102261.06;;;13.34;74.69
71772;BME280;59606;52.138;5.424;2022-09-01T04:24:28;102265.53;;;13.32;74.62
71772;BME280;59606;52.138;5.424;2022-09-01T04:26:58;102266.50;;;13.29;74.80
71772;BME280;59606;52.138;5.424;2022-09-01T04:29:28;102261.31;;;13.28;74.54
71772;BME280;59606;52.138;5.424;2022-09-01T04:32:00;102264.94;;;13.25;74.81
71772;BME280;59606;52.138;5.424;2022-09-01T04:34:30;102267.56;;;13.24;74.77
71772;BME280;59606;52.138;5.424;2022-09-01T04:37:10;102266.84;;;13.20;74.65
71772;BME280;59606;52.138;5.424;2022-09-01T04:39:39;102261.75;;;13.17;74.98
71772;BME280;59606;52.138;5.424;2022-09-01T04:42:06;102260.19;;;13.13;75.17
71772;BME280;59606;52.138;5.424;2022-09-01T04:44:34;102261.16;;;13.10;74.94
71772;BME280;59606;52.138;5.424;2022-09-01T04:47:02;102258.69;;;13.07;74.80
71772;BME280;59606;52.138;5.424;2022-09-01T04:49:28;102257.13;;;13.03;75.07
71772;BME280;59606;52.138;5.424;2022-09-01T04:51:58;102258.88;;;13.03;74.58
71772;BME280;59606;52.138;5.424;2022-09-01T04:54:25;102257.19;;;13.02;74.99
71772;BME280;59606;52.138;5.424;2022-09-01T04:56:52;102257.31;;;12.98;74.77
71772;BME280;59606;52.138;5.424;2022-09-01T04:59:22;102262.69;;;12.95;74.81
71772;BME280;59606;52.138;5.424;2022-09-01T05:01:49;102253.19;;;12.93;75.02
71772;BME280;59606;52.138;5.424;2022-09-01T05:04:23;102265.41;;;12.92;74.88
71772;BME280;59606;52.138;5.424;2022-09-01T05:06:53;102264.56;;;12.92;74.96
71772;BME280;59606;52.138;5.424;2022-09-01T05:09:30;102266.25;;;12.93;75.07
71772;BME280;59606;52.138;5.424;2022-09-01T05:11:58;102265.28;;;12.95;74.78
71772;BME280;59606;52.138;5.424;2022-09-01T05:14:34;102261.72;;;12.98;74.87
71772;BME280;59606;52.138;5.424;2022-09-01T05:17:00;102262.28;;;13.05;74.55
71772;BME280;59606;52.138;5.424;2022-09-01T05:19:27;102270.88;;;13.08;74.99
71772;BME280;59606;52.138;5.424;2022-09-01T05:21:56;102268.88;;;13.13;74.47
71772;BME280;59606;52.138;5.424;2022-09-01T05:24:27;102270.41;;;13.19;74.90
71772;BME280;59606;52.138;5.424;2022-09-01T05:26:55;102272.81;;;13.24;74.59
71772;BME280;59606;52.138;5.424;2022-09-01T05:29:22;102268.31;;;13.27;74.36
71772;BME280;59606;52.138;5.424;2022-09-01T05:31:50;102268.16;;;13.32;74.04
71772;BME280;59606;52.138;5.424;2022-09-01T05:34:17;102271.53;;;13.34;74.12
71772;BME280;59606;52.138;5.424;2022-09-01T05:36:54;102269.63;;;13.37;nan
71772;BME280;59606;52.138;5.424;2022-09-01T05:39:24;102266.97;;;13.39;73.50
71772;BME280;59606;52.138;5.424;2022-09-01T05:41:51;102270.41;;;13.39;73.65
71772;BME280;59606;52.138;5.424;2022-09-01T05:44:20;102271.22;;;13.41;73.70
71772;BME280;59606;52.138;5.424;2022-09-01T05:46:48;102272.69;;;13.47;73.61
71772;BME280;59606;52.138;5.424;2022-09-01T05:49:16;102277.75;;;13.52;73.34
71772;BME280;59606;52.138;5.424;2022-09-01T05:51:46;102278.31;;;13.58;72.81
71772;BME280;59606;52.138;5.424;2022-09-01T05:54:18;102280.59;;;13.66;72.77
71772;BME280;59606;52.138;5.424;2022-09-01T05:56:47;102275.84;;;13.74;72.33
71772;BME280;59606;52.138;5.424;2022-09-01T05:59:14;102270.44;;;13.79;72.31
71772;BME280;59606;52.138;5.424;2022-09-01T06:01:50;102280.47;;;13.88;72.59
71772;BME280;59606;52.138;5.424;2022-09-01T06:04:19;102275.88;;;13.93;72.11
71772;BME280;59606;52.138;5.424;2022-09-01T06:06:47;102275.50;;;14.01;71.65
71772;BME280;59606;52.138;5.424;2022-09-01T06:09:36;102282.13;;;14.09;71.00
71772;BME280;59606;52.138;5.424;2022-09-01T06:12:03;102280.81;;;14.18;70.84
71772;BME280;59606;52.138;5.424;2022-09-01T06:14:31;102271.75;;;14.25;70.37
71772;BME280;59606;52.138;5.424;2022-09-01T06:16:57;102269.63;;;14.33;70.29
71772;BME280;59606;52.138;5.424;2022-09-01T06:19:24;102270.09;;;14.42;69.93
71772;BME280;59606;52.138;5.424;2022-09-01T06:21:50;102271.47;;;14.50;70.12
71772;BME280;59606;52.138;5.424;2022-09-01T06:24:17;102279.72;;;14.60;70.40
71772;BME280;59606;52.138;5.424;2022-09-01T06:26:43;102276.81;;;14.66;69.89
71772;BME280;59606;52.138;5.424;2022-09-01T06:29:11;102279.91;;;14.74;69.71
71772;BME280;59606;52.138;5.424;2022-09-01T06:31:41;102267.28;;;14.82;69.50
71772;BME280;59606;52.138;5.424;2022-09-01T06:34:11;102275.59;;;14.91;68.72
71772;BME280;59606;52.138;5.424;2022-09-01T06:36:44;102274.28;;;14.99;68.26
71772;BME280;59606;52.138;5.424;2022-09-01T06:39:12;102276.44;;;15.08;67.81
71772;BME280;59606;52.138;5.424;2022-09-01T06:41:49;102282.84;;;15.20;67.40
71772;BME280;59606;52.138;5.424;2022-09-01T06:44:19;102285.75;;;15.31;67.33
71772;BME280;59606;52.138;5.424;2022-09-01T06:46:49;102288.69;;;15.43;66.96
71772;BME280;59606;52.138;5.424;2022-09-01T06:49:17;102287.28;;;15.53;66.96
71772;BME280;59606;52.138;5.424;2022-09-01T06:51:44;102289.56;;;15.59;65.66
71772;BME280;59606;52.138;5.424;2022-09-01T06:54:14;102293.53;;;15.68;65.26
71772;BME280;59606;52.138;5.424;2022-09-01T06:56:41;102287.97;;;15.74;64.88
71772;BME280;59606;52.138;5.424;2022-09-01T06:59:14;102292.09;;;15.78;64.82
71772;BME280;59606;52.138;5.424;2022-09-01T07:01:41;102284.69;;;15.86;64.11
71772;BME280;59606;52.138;5.424;2022-09-01T07:04:08;102291.88;;;15.98;63.60
71772;BME280;59606;52.138;5.424;2022-09-01T07:06:39;102302.91;;;16.05;63.91
71772;BME280;59606;52.138;5.424;2022-09-01T07:09:26;102293.91;;;16.09;62.98
71772;BME280;59606;52.138;5.424;2022-09-01T07:12:13;102300.28;;;16.21;64.01
71772;BME280;59606;52.138;5.424;2022-09-01T07:14:54;102301.03;;;16.39;62.06
71772;BME280;59606;52.138;5.424;2022-09-01T07:17:41;102294.25;;;16.50;61.73
71772;BME280;59606;52.138;5.424;2022-09-01T07:20:08;102298.06;;;16.61;61.64
71772;BME280;59606;52.138;5.424;2022-09-01T07:22:54;102300.19;;;16.70;60.85
71772;BME280;59606;52.138;5.424;2022-09-01T07:25:31;102293.38;;;16.82;59.79
71772;BME280;59606;52.138;5.424;2022-09-01T07:28:21;102293.53;;;16.94;59.83
71772;BME280;59606;52.138;5.424;2022-09-01T07:30:51;102293.47;;;17.10;59.83
71772;BME280;59606;52.138;5.424;2022-09-01T07:33:22;102302.03;;;17.14;59.30
71772;BME280;59606;52.138;5.424;2022-09-01T07:36:09;102295.66;;;17.18;58.84
71772;BME280;59606;52.138;5.424;2022-09-01T07:38:53;102290.75;;;17.26;59.35
71772;BME280;59606;52.138;5.424;2022-09-01T07:41:40;102291.34;;;17.46;59.54
71772;BME280;59606;52.138;5.424;2022-09-01T07:44:27;102289.28;;;17.65;58.56
71772;BME280;59606;52.138;5.424;2022-09-01T07:46:53;102289.56;;;17.75;57.90
71772;BME280;59606;52.138;5.424;2022-09-01T07:49:40;102285.34;;;17.86;57.31
71772;BME280;59606;52.138;5.424;2022-09-01T07:52:27;102284.59;;;17.99;57.97
71772;BME280;59606;52.138;5.424;2022-09-01T07:54:54;102294.16;;;18.14;57.37
71772;BME280;59606;52.138;5.424;2022-09-01T07:57:21;102298.56;;;18.28;56.07
71772;BME280;59606;52.138;5.424;2022-09-01T07:59:48;102283.56;;;18.28;54.90
71772;BME280;59606;52.138;5.424;2022-09-01T08:02:19;102295.72;;;18.31;54.62
71772;BME280;59606;52.138;5.424;2022-09-01T08:04:45;102283.38;;;18.31;54.46
71772;BME280;59606;52.138;5.424;2022-09-01T08:07:12;102286.56;;;18.36;54.64
71772;BME280;59606;52.138;5.424;2022-09-01T08:09:41;102285.78;;;18.49;54.44
71772;BME280;59606;52.138;5.424;2022-09-01T08:12:09;102279.25;;;18.54;54.32
71772;BME280;59606;52.138;5.424;2022-09-01T08:14:36;102284.66;;;18.66;53.81
71772;BME280;59606;52.138;5.424;2022-09-01T08:17:03;102283.34;;;18.73;55.08
71772;BME280;59606;52.138;5.424;2022-09-01T08:19:50;102284.75;;;18.78;54.08
71772;BME280;59606;52.138;5.424;2022-09-01T08:22:18;102282.53;;;18.85;54.20
71772;BME280;59606;52.138;5.424;2022-09-01T08:24:50;102288.06;;;18.95;53.79
71772;BME280;59606;52.138;5.424;2022-09-01T08:27:17;102289.13;;;19.05;53.39
71772;BME280;59606;52.138;5.424;2022-09-01T08:29:44;102284.91;;;19.15;53.17
71772;BME280;59606;52.138;5.424;2022-09-01T08:32:11;102289.13;;;19.30;52.75
71772;BME280;59606;52.138;5.424;2022-09-01T08:34:37;102284.47;;;19.34;51.76
71772;BME280;59606;52.138;5.424;2022-09-01T08:37:04;102288.59;;;19.38;50.45
71772;BME280;59606;52.138;5.424;2022-09-01T08:39:31;102291.44;;;19.48;50.55
71772;BME280;59606;52.138;5.424;2022-09-01T08:42:23;102287.13;;;19.60;51.58
71772;BME280;59606;52.138;5.424;2022-09-01T08:45:14;102277.94;;;19.65;50.85
71772;BME280;59606;52.138;5.424;2022-09-01T08:47:45;102283.66;;;19.72;50.45
71772;BME280;59606;52.138;5.424;2022-09-01T08:50:33;102278.00;;;19.89;50.91
71772;BME280;59606;52.138;5.424;2022-09-01T08:53:36;102275.75;;;19.96;49.54
71772;BME280;59606;52.138;5.424;2022-09-01T08:56:08;102275.34;;;20.02;49.05
71772;BME280;59606;52.138;5.424;2022-09-01T08:58:35;102276.44;;;20.11;48.96
71772;BME280;59606;52.138;5.424;2022-09-01T09:01:06;102274.09;;;20.19;48.61
71772;BME280;59606;52.138;5.424;2022-09-01T09:06:46;102265.31;;;20.42;48.85
71772;BME280;59606;52.138;5.424;2022-09-01T09:09:20;102266.66;;;20.48;48.22
71772;BME280;59606;52.138;5.424;2022-09-01T09:12:19;102267.22;;;20.53;47.95
71772;BME280;59606;52.138;5.424;2022-09-01T09:17:42;102258.63;;;20.74;46.12
71772;BME280;59606;52.138;5.424;2022-09-01T09:20:11;102259.59;;;20.84;45.51
71772;BME280;59606;52.138;5.424;2022-09-01T09:22:40;102258.53;;;20.86;44.32
71772;BME280;59606;52.138;5.424;2022-09-01T09:25:12;102257.09;;;20.93;44.64
71772;BME280;59606;52.138;5.424;2022-09-01T09:27:49;102257.59;;;20.99;44.88
71772;BME280;59606;52.138;5.424;2022-09-01T09:30:27;102257.00;;;21.06;44.15
71772;BME280;59606;52.138;5.424;2022-09-01T09:33:06;102244.97;;;21.13;45.12
71772;BME280;59606;52.138;5.424;2022-09-01T09:36:15;102242.78;;;21.18;44.20
71772;BME280;59606;52.138;5.424;2022-09-01T09:38:42;102238.00;;;21.24;43.12
71772;BME280;59606;52.138;5.424;2022-09-01T09:41:20;102240.88;;;21.32;43.23
71772;BME280;59606;52.138;5.424;2022-09-01T09:43:56;102237.19;;;21.46;42.54
71772;BME280;59606;52.138;5.424;2022-09-01T09:46:31;102237.19;;;21.57;43.09
71772;BME280;59606;52.138;5.424;2022-09-01T09:54:40;102228.59;;;21.76;41.48
71772;BME280;59606;52.138;5.424;2022-09-01T09:59:55;102219.84;;;21.96;41.96
71772;BME280;59606;52.138;5.424;2022-09-01T10:04:53;102212.22;;;22.14;41.47
71772;BME280;59606;52.138;5.424;2022-09-01T10:07:33;102209.09;;;22.20;40.28
71772;BME280;59606;52.138;5.424;2022-09-01T10:10:04;102212.84;;;22.18;40.65
71772;BME280;59606;52.138;5.424;2022-09-01T10:12:32;102213.28;;;22.23;38.68
71772;BME280;59606;52.138;5.424;2022-09-01T10:15:06;102207.53;;;22.18;38.83
71772;BME280;59606;52.138;5.424;2022-09-01T10:17:41;102204.81;;;22.29;38.32
71772;BME280;59606;52.138;5.424;2022-09-01T10:20:19;102200.09;;;22.32;38.81
71772;BME280;59606;52.138;5.424;2022-09-01T10:22:49;102210.47;;;22.35;38.31
71772;BME280;59606;52.138;5.424;2022-09-01T10:25:27;102194.75;;;22.44;38.18
71772;BME280;59606;52.138;5.424;2022-09-01T10:28:02;102205.06;;;22.58;38.50
71772;BME280;59606;52.138;5.424;2022-09-01T10:30:36;102195.84;;;22.62;37.81
71772;BME280;59606;52.138;5.424;2022-09-01T10:33:08;102194.03;;;22.63;37.56
71772;BME280;59606;52.138;5.424;2022-09-01T10:35:48;102207.53;;;22.71;37.87
71772;BME280;59606;52.138;5.424;2022-09-01T10:38:19;102197.91;;;22.79;37.11
71772;BME280;59606;52.138;5.424;2022-09-01T10:40:49;102197.53;;;22.84;37.60
71772;BME280;59606;52.138;5.424;2022-09-01T10:48:54;102192.63;;;23.00;36.60
71772;BME280;59606;52.138;5.424;2022-09-01T10:54:04;102180.66;;;23.16;36.63
71772;BME280;59606;52.138;5.424;2022-09-01T10:56:47;102177.72;;;23.19;36.45
71772;BME280;59606;52.138;5.424;2022-09-01T10:59:29;102172.41;;;23.19;36.23
71772;BME280;59606;52.138;5.424;2022-09-01T11:02:19;102184.72;;;23.20;36.36
71772;BME280;59606;52.138;5.424;2022-09-01T11:13:41;102179.09;;;23.53;36.32
71772;BME280;59606;52.138;5.424;2022-09-01T11:16:27;102174.75;;;23.52;35.13
71772;BME280;59606;52.138;5.424;2022-09-01T11:22:21;102174.34;;;23.67;34.96
71772;BME280;59606;52.138;5.424;2022-09-01T11:28:34;102173.88;;;23.92;33.81
71772;BME280;59606;52.138;5.424;2022-09-01T11:31:10;102168.41;;;23.94;32.77
71772;BME280;59606;52.138;5.424;2022-09-01T11:42:09;102165.34;;;24.08;33.43
71772;BME280;59606;52.138;5.424;2022-09-01T11:44:50;102157.75;;;24.04;33.12
71772;BME280;59606;52.138;5.424;2022-09-01T11:50:24;102165.75;;;24.13;32.47
71772;BME280;59606;52.138;5.424;2022-09-01T11:53:10;102160.56;;;24.21;33.19
71772;BME280;59606;52.138;5.424;2022-09-01T11:55:41;102159.97;;;24.28;32.60
71772;BME280;59606;52.138;5.424;2022-09-01T11:58:34;102141.19;;;24.39;32.89
71772;BME280;59606;52.138;5.424;2022-09-01T12:03:44;102143.44;;;24.53;32.37
71772;BME280;59606;52.138;5.424;2022-09-01T12:06:22;102141.03;;;24.60;32.48
71772;BME280;59606;52.138;5.424;2022-09-01T12:09:02;102135.00;;;24.58;32.74
71772;BME280;59606;52.138;5.424;2022-09-01T12:11:32;102137.25;;;24.62;31.00
71772;BME280;59606;52.138;5.424;2022-09-01T12:14:09;102128.44;;;24.52;32.57
71772;BME280;59606;52.138;5.424;2022-09-01T12:16:40;102125.34;;;24.57;32.29
71772;BME280;59606;52.138;5.424;2022-09-01T12:19:21;102128.16;;;24.55;32.64
71772;BME280;59606;52.138;5.424;2022-09-01T12:22:12;102136.81;;;24.67;32.85
71772;BME280;59606;52.138;5.424;2022-09-01T12:24:51;102133.16;;;24.68;32.49
71772;BME280;59606;52.138;5.424;2022-09-01T12:27:20;102133.88;;;24.70;32.22
71772;BME280;59606;52.138;5.424;2022-09-01T12:29:49;102133.13;;;24.78;31.64
71772;BME280;59606;52.138;5.424;2022-09-01T12:32:17;102126.66;;;24.80;31.66
71772;BME280;59606;52.138;5.424;2022-09-01T12:34:59;102120.75;;;24.86;31.43
71772;BME280;59606;52.138;5.424;2022-09-01T12:37:27;102119.63;;;24.89;31.82
71772;BME280;59606;52.138;5.424;2022-09-01T12:39:56;102125.63;;;24.91;31.53
71772;BME280;59606;52.138;5.424;2022-09-01T12:49:59;102121.81;;;25.03;31.53
71772;BME280;59606;52.138;5.424;2022-09-01T12:52:30;102109.19;;;25.05;32.05
71772;BME280;59606;52.138;5.424;2022-09-01T12:57:32;102105.50;;;25.16;31.38
71772;BME280;59606;52.138;5.424;2022-09-01T13:02:42;102099.34;;;25.33;30.83
71772;BME280;59606;52.138;5.424;2022-09-01T13:05:38;102109.50;;;25.30;31.63
71772;BME280;59606;52.138;5.424;2022-09-01T13:08:13;102098.41;;;25.25;31.10
71772;BME280;59606;52.138;5.424;2022-09-01T13:10:52;102098.53;;;25.33;32.06
71772;BME280;59606;52.138;5.424;2022-09-01T13:13:21;102100.72;;;25.37;31.80
71772;BME280;59606;52.138;5.424;2022-09-01T13:15:52;102092.47;;;25.31;30.98
71772;BME280;59606;52.138;5.424;2022-09-01T13:18:23;102098.34;;;25.34;31.54
71772;BME280;59606;52.138;5.424;2022-09-01T13:20:51;102088.16;;;25.48;31.36
71772;BME280;59606;52.138;5.424;2022-09-01T13:23:19;102084.28;;;25.42;31.03
71772;BME280;59606;52.138;5.424;2022-09-01T13:25:46;102085.53;;;25.20;31.38
71772;BME280;59606;52.138;5.424;2022-09-01T13:28:14;102083.69;;;25.21;31.22
71772;BME280;59606;52.138;5.424;2022-09-01T13:30:43;102074.63;;;25.31;31.08
71772;BME280;59606;52.138;5.424;2022-09-01T13:33:10;102073.03;;;25.38;30.71
71772;BME280;59606;52.138;5.424;2022-09-01T13:35:46;102061.47;;;25.48;30.40
71772;BME280;59606;52.138;5.424;2022-09-01T13:38:13;102073.69;;;25.50;30.88
71772;BME280;59606;52.138;5.424;2022-09-01T13:40:43;102070.25;;;25.58;30.28
71772;BME280;59606;52.138;5.424;2022-09-01T13:43:12;102059.44;;;25.59;30.18
71772;BME280;59606;52.138;5.424;2022-09-01T13:45:40;102072.59;;;25.61;30.68
71772;BME280;59606;52.138;5.424;2022-09-01T13:48:11;102052.78;;;25.63;30.65
71772;BME280;59606;52.138;5.424;2022-09-01T13:50:43;102067.72;;;25.56;30.44
71772;BME280;59606;52.138;5.424;2022-09-01T13:53:30;102055.44;;;25.63;30.50
71772;BME280;59606;52.138;5.424;2022-09-01T13:55:57;102047.38;;;25.73;30.30
71772;BME280;59606;52.138;5.424;2022-09-01T13:58:23;102057.16;;;25.82;30.59
71772;BME280;59606;52.138;5.424;2022-09-01T14:00:50;102057.50;;;25.70;30.52
71772;BME280;59606;52.138;5.424;2022-09-01T14:03:20;102043.34;;;25.69;30.81
71772;BME280;59606;52.138;5.424;2022-09-01T14:05:47;102045.00;;;25.70;30.58
71772;BME280;59606;52.138;5.424;2022-09-01T14:08:17;102045.53;;;25.74;30.79
71772;BME280;59606;52.138;5.424;2022-09-01T14:10:47;102050.16;;;25.72;30.50
71772;BME280;59606;52.138;5.424;2022-09-01T14:13:17;102046.13;;;25.68;30.98
71772;BME280;59606;52.138;5.424;2022-09-01T14:15:44;102032.44;;;25.62;30.67
71772;BME280;59606;52.138;5.424;2022-09-01T14:18:12;102038.59;;;25.63;30.44
71772;BME280;59606;52.138;5.424;2022-09-01T14:20:43;102040.34;;;25.72;30.62
71772;BME280;59606;52.138;5.424;2022-09-01T14:23:11;102040.72;;;25.77;30.91
71772;BME280;59606;52.138;5.424;2022-09-01T14:25:44;102034.94;;;25.82;30.28